sensor_id;sensor_type;location;lat;lon;timestamp;P1;P2;P0
69746;PMS7003;57018;50.278;19.134;2023-08-31T00:00:25;21.00;19.00;11.00
69746;PMS7003;57018;50.278;19.134;2023-08-31T00:02:53;24.00;16.00;11.00
69746;PMS7003;57018;50.278;19.134;2023-08-31T00:05:21;23.00;21.50;14.00
69746;PMS7003;57018;50.278;19.134;2023-08-31T00:07:51;20.00;18.50;12.00
69746;PMS7003;57018;50.278;19.134;2023-08-31T00:10:18;21.00;19.00;12.00
69746;PMS7003;57018;50.278;19.134;2023-08-31T00:12:46;19.00;19.00;13.00
69746;PMS7003;57018;50.278;19.134;2023-08-31T00:15:15;23.00;20.00;14.00
69746;PMS7003;57018;50.278;19.134;2023-08-31T00:17:43;19.00;18.50;10.00
69746;PMS7003;57018;50.278;19.134;2023-08-31T00:20:11;22.00;22.00;13.00
69746;PMS7003;57018;50.278;19.134;2023-08-31T00:25:06;15.50;15.00;9.50
69746;PMS7003;57018;50.278;19.134;2023-08-31T00:27:34;25.50;22.00;14.00
69746;PMS7003;57018;50.278;19.134;2023-08-31T00:30:05;24.00;22.00;12.00
69746;PMS7003;57018;50.278;19.134;2023-08-31T00:32:34;23.50;22.00;15.00
69746;PMS7003;57018;50.278;19.134;2023-08-31T00:35:02;28.00;25.00;17.00
69746;PMS7003;57018;50.278;19.134;2023-08-31T00:37:31;24.00;23.00;13.00
69746;PMS7003;57018;50.278;19.134;2023-08-31T00:40:00;25.50;22.50;13.50
69746;PMS7003;57018;50.278;19.134;2023-08-31T00:42:30;26.00;21.00;12.50
69746;PMS7003;57018;50.278;19.134;2023-08-31T00:44:58;27.50;23.00;14.50
69746;PMS7003;57018;50.278;19.134;2023-08-31T00:47:26;23.00;21.00;11.00
69746;PMS7003;57018;50.278;19.134;2023-08-31T00:49:54;25.00;25.00;15.50
69746;PMS7003;57018;50.278;19.134;2023-08-31T00:52:22;24.50;22.50;13.50
69746;PMS7003;57018;50.278;19.134;2023-08-31T00:54:50;22.00;22.00;15.00
69746;PMS7003;57018;50.278;19.134;2023-08-31T00:57:19;22.00;21.00;13.50
69746;PMS7003;57018;50.278;19.134;2023-08-31T00:59:46;24.00;23.00;14.00
69746;PMS7003;57018;50.278;19.134;2023-08-31T01:04:51;33.00;25.50;15.00
69746;PMS7003;57018;50.278;19.134;2023-08-31T01:07:27;26.00;21.00;12.00
69746;PMS7003;57018;50.278;19.134;2023-08-31T01:10:07;33.00;30.00;17.00
69746;PMS7003;57018;50.278;19.134;2023-08-31T01:12:44;23.00;21.50;14.00
69746;PMS7003;57018;50.278;19.134;2023-08-31T01:15:19;27.00;23.00;13.00
69746;PMS7003;57018;50.278;19.134;2023-08-31T01:20:17;35.00;29.00;19.00
69746;PMS7003;57018;50.278;19.134;2023-08-31T01:22:56;26.00;22.00;16.00
69746;PMS7003;57018;50.278;19.134;2023-08-31T01:25:27;31.00;27.00;14.00
69746;PMS7003;57018;50.278;19.134;2023-08-31T01:30:25;28.00;25.00;16.00
69746;PMS7003;57018;50.278;19.134;2023-08-31T01:32:55;27.50;27.00;15.00
69746;PMS7003;57018;50.278;19.134;2023-08-31T01:35:23;28.00;25.00;15.00
69746;PMS7003;57018;50.278;19.134;2023-08-31T01:37:53;25.00;23.00;14.50
69746;PMS7003;57018;50.278;19.134;2023-08-31T01:40:25;35.50;29.50;17.50
69746;PMS7003;57018;50.278;19.134;2023-08-31T01:43:00;28.00;27.00;15.00
69746;PMS7003;57018;50.278;19.134;2023-08-31T01:45:30;31.00;24.00;16.00
69746;PMS7003;57018;50.278;19.134;2023-08-31T01:50:26;32.50;29.50;17.50
69746;PMS7003;57018;50.278;19.134;2023-08-31T01:55:22;31.00;30.50;19.00
69746;PMS7003;57018;50.278;19.134;2023-08-31T01:57:50;31.00;27.00;16.00
69746;PMS7003;57018;50.278;19.134;2023-08-31T02:00:18;33.00;29.50;15.50
69746;PMS7003;57018;50.278;19.134;2023-08-31T02:02:46;23.50;22.00;14.00
69746;PMS7003;57018;50.278;19.134;2023-08-31T02:05:14;41.00;30.00;20.00
69746;PMS7003;57018;50.278;19.134;2023-08-31T02:10:09;26.00;24.00;14.00
69746;PMS7003;57018;50.278;19.134;2023-08-31T02:12:37;28.00;28.00;19.00
69746;PMS7003;57018;50.278;19.134;2023-08-31T02:15:05;26.00;23.50;15.00
69746;PMS7003;57018;50.278;19.134;2023-08-31T02:17:34;31.00;29.50;18.50
69746;PMS7003;57018;50.278;19.134;2023-08-31T02:20:02;32.00;29.00;17.00
69746;PMS7003;57018;50.278;19.134;2023-08-31T02:22:33;33.00;28.00;17.00
69746;PMS7003;57018;50.278;19.134;2023-08-31T02:27:28;22.00;21.00;12.00
69746;PMS7003;57018;50.278;19.134;2023-08-31T02:29:56;21.00;19.00;11.50
69746;PMS7003;57018;50.278;19.134;2023-08-31T02:32:24;24.00;24.00;17.00
69746;PMS7003;57018;50.278;19.134;2023-08-31T02:34:52;26.00;24.00;15.00
69746;PMS7003;57018;50.278;19.134;2023-08-31T02:37:19;19.00;16.00;10.00
69746;PMS7003;57018;50.278;19.134;2023-08-31T02:39:47;20.00;19.00;13.00
69746;PMS7003;57018;50.278;19.134;2023-08-31T02:42:15;18.00;18.00;12.50
69746;PMS7003;57018;50.278;19.134;2023-08-31T02:44:43;20.00;18.50;12.50
69746;PMS7003;57018;50.278;19.134;2023-08-31T02:47:11;14.00;13.00;11.00
69746;PMS7003;57018;50.278;19.134;2023-08-31T02:49:39;18.50;18.00;12.50
69746;PMS7003;57018;50.278;19.134;2023-08-31T02:52:07;15.00;14.00;9.00
69746;PMS7003;57018;50.278;19.134;2023-08-31T02:54:35;18.00;15.00;11.00
69746;PMS7003;57018;50.278;19.134;2023-08-31T02:57:03;19.00;19.00;12.00
69746;PMS7003;57018;50.278;19.134;2023-08-31T02:59:31;17.00;17.00;11.00
69746;PMS7003;57018;50.278;19.134;2023-08-31T03:02:01;17.50;16.00;10.50
69746;PMS7003;57018;50.278;19.134;2023-08-31T03:04:29;19.00;19.00;12.00
69746;PMS7003;57018;50.278;19.134;2023-08-31T03:06:57;16.00;16.00;10.00
69746;PMS7003;57018;50.278;19.134;2023-08-31T03:09:25;18.50;17.00;13.00
69746;PMS7003;57018;50.278;19.134;2023-08-31T03:11:53;20.50;19.50;12.50
69746;PMS7003;57018;50.278;19.134;2023-08-31T03:14:21;21.50;19.50;14.50
69746;PMS7003;57018;50.278;19.134;2023-08-31T03:16:49;18.50;17.50;11.00
69746;PMS7003;57018;50.278;19.134;2023-08-31T03:19:17;21.00;18.00;10.00
69746;PMS7003;57018;50.278;19.134;2023-08-31T03:21:45;20.00;19.00;12.00
69746;PMS7003;57018;50.278;19.134;2023-08-31T03:24:13;18.50;18.50;13.00
69746;PMS7003;57018;50.278;19.134;2023-08-31T03:26:40;20.00;18.00;12.00
69746;PMS7003;57018;50.278;19.134;2023-08-31T03:29:08;18.50;17.50;10.50
69746;PMS7003;57018;50.278;19.134;2023-08-31T03:31:36;20.50;19.00;13.00
69746;PMS7003;57018;50.278;19.134;2023-08-31T03:34:04;19.00;19.00;14.00
69746;PMS7003;57018;50.278;19.134;2023-08-31T03:36:31;19.00;18.00;12.00
69746;PMS7003;57018;50.278;19.134;2023-08-31T03:38:59;16.00;16.00;10.00
69746;PMS7003;57018;50.278;19.134;2023-08-31T03:41:27;18.00;18.00;12.00
69746;PMS7003;57018;50.278;19.134;2023-08-31T03:43:55;17.00;17.00;10.00
69746;PMS7003;57018;50.278;19.134;2023-08-31T03:46:23;16.50;15.50;12.00
69746;PMS7003;57018;50.278;19.134;2023-08-31T03:48:50;20.50;18.00;11.00
69746;PMS7003;57018;50.278;19.134;2023-08-31T03:51:18;21.50;18.50;15.00
69746;PMS7003;57018;50.278;19.134;2023-08-31T03:53:46;21.00;20.00;12.00
69746;PMS7003;57018;50.278;19.134;2023-08-31T03:56:14;21.00;20.00;11.50
69746;PMS7003;57018;50.278;19.134;2023-08-31T03:58:41;18.00;17.00;11.00
69746;PMS7003;57018;50.278;19.134;2023-08-31T04:01:09;15.00;14.00;11.00
69746;PMS7003;57018;50.278;19.134;2023-08-31T04:03:37;18.00;16.00;12.00
69746;PMS7003;57018;50.278;19.134;2023-08-31T04:06:05;20.00;18.00;12.00
69746;PMS7003;57018;50.278;19.134;2023-08-31T04:08:33;19.50;17.50;10.00
69746;PMS7003;57018;50.278;19.134;2023-08-31T04:11:00;18.00;17.00;11.00
69746;PMS7003;57018;50.278;19.134;2023-08-31T04:13:29;16.50;16.50;11.00
69746;PMS7003;57018;50.278;19.134;2023-08-31T04:15:57;19.00;17.50;12.00
69746;PMS7003;57018;50.278;19.134;2023-08-31T04:20:52;16.00;16.00;9.50
69746;PMS7003;57018;50.278;19.134;2023-08-31T04:23:21;18.00;17.00;12.00
69746;PMS7003;57018;50.278;19.134;2023-08-31T04:25:49;17.00;17.00;9.00
69746;PMS7003;57018;50.278;19.134;2023-08-31T04:28:17;14.00;13.00;9.50
69746;PMS7003;57018;50.278;19.134;2023-08-31T04:33:12;16.00;14.00;10.00
69746;PMS7003;57018;50.278;19.134;2023-08-31T04:35:40;22.50;17.00;13.00
69746;PMS7003;57018;50.278;19.134;2023-08-31T04:38:08;15.50;15.50;10.00
69746;PMS7003;57018;50.278;19.134;2023-08-31T04:40:36;13.00;12.00;9.00
69746;PMS7003;57018;50.278;19.134;2023-08-31T04:43:04;17.00;15.00;9.00
69746;PMS7003;57018;50.278;19.134;2023-08-31T04:45:32;13.00;13.00;8.50
69746;PMS7003;57018;50.278;19.134;2023-08-31T04:47:59;14.00;13.00;10.50
69746;PMS7003;57018;50.278;19.134;2023-08-31T04:50:27;14.00;13.00;9.00
69746;PMS7003;57018;50.278;19.134;2023-08-31T04:52:55;14.00;13.00;9.00
69746;PMS7003;57018;50.278;19.134;2023-08-31T04:55:23;19.00;17.00;11.00
69746;PMS7003;57018;50.278;19.134;2023-08-31T04:57:55;16.50;15.50;9.50
69746;PMS7003;57018;50.278;19.134;2023-08-31T05:00:23;13.00;11.00;8.50
69746;PMS7003;57018;50.278;19.134;2023-08-31T05:05:18;16.00;14.00;9.00
69746;PMS7003;57018;50.278;19.134;2023-08-31T05:07:46;17.00;15.00;9.00
69746;PMS7003;57018;50.278;19.134;2023-08-31T05:12:41;22.00;18.00;11.00
69746;PMS7003;57018;50.278;19.134;2023-08-31T05:15:09;12.00;12.00;8.00
69746;PMS7003;57018;50.278;19.134;2023-08-31T05:17:37;16.00;12.50;8.00
69746;PMS7003;57018;50.278;19.134;2023-08-31T05:20:06;16.00;13.00;6.00
69746;PMS7003;57018;50.278;19.134;2023-08-31T05:22:36;12.00;12.00;8.00
69746;PMS7003;57018;50.278;19.134;2023-08-31T05:25:04;17.00;13.00;9.00
69746;PMS7003;57018;50.278;19.134;2023-08-31T05:27:33;13.00;12.00;9.00
69746;PMS7003;57018;50.278;19.134;2023-08-31T05:30:00;14.00;12.00;9.00
69746;PMS7003;57018;50.278;19.134;2023-08-31T05:34:56;13.00;13.00;8.00
69746;PMS7003;57018;50.278;19.134;2023-08-31T05:37:25;9.50;9.50;6.00
69746;PMS7003;57018;50.278;19.134;2023-08-31T05:39:58;9.00;9.00;7.00
69746;PMS7003;57018;50.278;19.134;2023-08-31T05:42:26;13.00;11.00;7.00
69746;PMS7003;57018;50.278;19.134;2023-08-31T05:49:47;12.00;10.00;6.00
69746;PMS7003;57018;50.278;19.134;2023-08-31T05:52:15;11.00;9.00;7.00
69746;PMS7003;57018;50.278;19.134;2023-08-31T05:54:43;9.00;9.00;6.00
69746;PMS7003;57018;50.278;19.134;2023-08-31T05:57:11;10.00;10.00;7.00
69746;PMS7003;57018;50.278;19.134;2023-08-31T05:59:38;9.50;9.50;7.50
69746;PMS7003;57018;50.278;19.134;2023-08-31T06:02:06;13.50;11.00;8.00
69746;PMS7003;57018;50.278;19.134;2023-08-31T06:04:36;18.00;15.00;12.00
69746;PMS7003;57018;50.278;19.134;2023-08-31T06:07:04;11.00;9.00;7.00
69746;PMS7003;57018;50.278;19.134;2023-08-31T06:09:32;13.00;12.50;7.00
69746;PMS7003;57018;50.278;19.134;2023-08-31T06:12:00;11.00;10.00;7.00
69746;PMS7003;57018;50.278;19.134;2023-08-31T06:14:28;11.00;10.00;7.00
69746;PMS7003;57018;50.278;19.134;2023-08-31T06:16:55;12.00;9.00;6.00
69746;PMS7003;57018;50.278;19.134;2023-08-31T06:19:23;11.00;11.00;7.00
69746;PMS7003;57018;50.278;19.134;2023-08-31T06:21:51;14.00;13.00;8.00
69746;PMS7003;57018;50.278;19.134;2023-08-31T06:24:19;10.00;10.00;7.00
69746;PMS7003;57018;50.278;19.134;2023-08-31T06:26:47;12.00;12.00;8.00
69746;PMS7003;57018;50.278;19.134;2023-08-31T06:29:14;12.50;12.50;9.00
69746;PMS7003;57018;50.278;19.134;2023-08-31T06:31:42;13.50;12.00;9.00
69746;PMS7003;57018;50.278;19.134;2023-08-31T06:34:10;21.00;18.00;10.00
69746;PMS7003;57018;50.278;19.134;2023-08-31T06:36:38;20.00;16.50;10.50
69746;PMS7003;57018;50.278;19.134;2023-08-31T06:39:06;13.00;12.00;8.00
69746;PMS7003;57018;50.278;19.134;2023-08-31T06:41:34;11.50;9.50;7.00
69746;PMS7003;57018;50.278;19.134;2023-08-31T06:46:30;11.00;9.00;6.00
69746;PMS7003;57018;50.278;19.134;2023-08-31T06:49:03;13.00;13.00;9.00
69746;PMS7003;57018;50.278;19.134;2023-08-31T06:51:32;10.00;8.00;6.00
69746;PMS7003;57018;50.278;19.134;2023-08-31T06:54:00;18.00;17.00;10.00
69746;PMS7003;57018;50.278;19.134;2023-08-31T06:56:32;8.00;6.50;4.50
69746;PMS7003;57018;50.278;19.134;2023-08-31T06:59:00;13.00;11.00;7.00
69746;PMS7003;57018;50.278;19.134;2023-08-31T07:01:29;17.00;16.00;10.00
69746;PMS7003;57018;50.278;19.134;2023-08-31T07:03:58;10.50;10.50;7.50
69746;PMS7003;57018;50.278;19.134;2023-08-31T07:06:26;9.00;8.00;6.00
69746;PMS7003;57018;50.278;19.134;2023-08-31T07:08:54;8.00;7.00;5.00
69746;PMS7003;57018;50.278;19.134;2023-08-31T07:11:22;9.00;7.00;6.00
69746;PMS7003;57018;50.278;19.134;2023-08-31T07:13:50;12.00;11.00;9.00
69746;PMS7003;57018;50.278;19.134;2023-08-31T07:16:19;11.00;9.00;7.00
69746;PMS7003;57018;50.278;19.134;2023-08-31T07:18:47;8.00;8.00;6.00
69746;PMS7003;57018;50.278;19.134;2023-08-31T07:21:14;11.00;8.00;6.00
69746;PMS7003;57018;50.278;19.134;2023-08-31T07:23:42;10.00;7.00;5.00
69746;PMS7003;57018;50.278;19.134;2023-08-31T07:26:10;8.00;7.00;5.00
69746;PMS7003;57018;50.278;19.134;2023-08-31T07:28:38;11.00;10.50;6.00
69746;PMS7003;57018;50.278;19.134;2023-08-31T07:31:06;9.00;9.00;5.00
69746;PMS7003;57018;50.278;19.134;2023-08-31T07:33:34;10.00;10.00;7.00
69746;PMS7003;57018;50.278;19.134;2023-08-31T07:36:02;7.00;7.00;6.00
69746;PMS7003;57018;50.278;19.134;2023-08-31T07:38:31;9.00;8.00;6.00
69746;PMS7003;57018;50.278;19.134;2023-08-31T07:41:00;8.00;8.00;6.00
69746;PMS7003;57018;50.278;19.134;2023-08-31T07:43:27;11.00;9.00;5.00
69746;PMS7003;57018;50.278;19.134;2023-08-31T07:45:55;9.50;6.50;4.00
69746;PMS7003;57018;50.278;19.134;2023-08-31T07:48:23;7.00;7.00;5.50
69746;PMS7003;57018;50.278;19.134;2023-08-31T07:50:51;4.00;4.00;3.50
69746;PMS7003;57018;50.278;19.134;2023-08-31T07:53:19;8.00;7.00;4.00
69746;PMS7003;57018;50.278;19.134;2023-08-31T07:55:53;6.50;6.50;4.00
69746;PMS7003;57018;50.278;19.134;2023-08-31T07:58:22;7.00;5.00;4.00
69746;PMS7003;57018;50.278;19.134;2023-08-31T08:00:52;4.00;4.00;3.00
69746;PMS7003;57018;50.278;19.134;2023-08-31T08:03:21;3.00;3.00;2.00
69746;PMS7003;57018;50.278;19.134;2023-08-31T08:05:49;3.00;3.00;2.00
69746;PMS7003;57018;50.278;19.134;2023-08-31T08:08:16;5.50;5.50;4.00
69746;PMS7003;57018;50.278;19.134;2023-08-31T08:10:44;9.00;9.00;6.00
69746;PMS7003;57018;50.278;19.134;2023-08-31T08:13:12;4.50;4.50;3.00
69746;PMS7003;57018;50.278;19.134;2023-08-31T08:15:41;4.00;4.00;3.25
69746;PMS7003;57018;50.278;19.134;2023-08-31T08:18:09;5.00;5.00;4.00
69746;PMS7003;57018;50.278;19.134;2023-08-31T08:23:04;5.00;4.00;3.00
69746;PMS7003;57018;50.278;19.134;2023-08-31T08:25:33;3.00;3.00;3.00
69746;PMS7003;57018;50.278;19.134;2023-08-31T08:28:00;5.00;5.00;4.00
69746;PMS7003;57018;50.278;19.134;2023-08-31T08:30:29;4.00;4.00;3.00
69746;PMS7003;57018;50.278;19.134;2023-08-31T08:32:57;3.00;3.00;2.00
69746;PMS7003;57018;50.278;19.134;2023-08-31T08:35:25;7.00;7.00;6.00
69746;PMS7003;57018;50.278;19.134;2023-08-31T08:37:52;5.00;4.50;3.50
69746;PMS7003;57018;50.278;19.134;2023-08-31T08:40:20;5.00;3.00;2.00
69746;PMS7003;57018;50.278;19.134;2023-08-31T08:42:48;4.00;3.00;2.00
69746;PMS7003;57018;50.278;19.134;2023-08-31T08:45:19;5.00;5.00;4.00
69746;PMS7003;57018;50.278;19.134;2023-08-31T08:47:51;3.00;3.00;3.00
69746;PMS7003;57018;50.278;19.134;2023-08-31T08:50:20;5.00;5.00;5.00
69746;PMS7003;57018;50.278;19.134;2023-08-31T08:55:18;4.00;4.00;3.00
69746;PMS7003;57018;50.278;19.134;2023-08-31T08:57:47;7.00;5.00;4.00
69746;PMS7003;57018;50.278;19.134;2023-08-31T09:00:15;4.00;4.00;3.00
69746;PMS7003;57018;50.278;19.134;2023-08-31T09:02:43;7.00;5.00;4.00
69746;PMS7003;57018;50.278;19.134;2023-08-31T09:05:12;7.00;7.00;5.50
69746;PMS7003;57018;50.278;19.134;2023-08-31T09:07:46;6.67;4.00;3.67
69746;PMS7003;57018;50.278;19.134;2023-08-31T09:10:33;8.00;6.00;4.00
69746;PMS7003;57018;50.278;19.134;2023-08-31T09:13:04;5.00;5.00;3.00
69746;PMS7003;57018;50.278;19.134;2023-08-31T09:15:40;4.75;4.75;3.00
69746;PMS7003;57018;50.278;19.134;2023-08-31T09:18:14;7.00;5.00;3.00
69746;PMS7003;57018;50.278;19.134;2023-08-31T09:20:48;5.00;5.00;3.00
69746;PMS7003;57018;50.278;19.134;2023-08-31T09:23:17;7.00;7.00;6.00
69746;PMS7003;57018;50.278;19.134;2023-08-31T09:25:46;4.00;4.00;3.00
69746;PMS7003;57018;50.278;19.134;2023-08-31T09:28:15;5.00;5.00;4.00
69746;PMS7003;57018;50.278;19.134;2023-08-31T09:33:13;5.00;5.00;3.00
69746;PMS7003;57018;50.278;19.134;2023-08-31T09:38:14;4.00;4.00;3.50
69746;PMS7003;57018;50.278;19.134;2023-08-31T09:40:42;5.00;5.00;3.00
69746;PMS7003;57018;50.278;19.134;2023-08-31T09:43:10;5.00;5.00;4.00
69746;PMS7003;57018;50.278;19.134;2023-08-31T09:45:38;4.00;4.00;2.50
69746;PMS7003;57018;50.278;19.134;2023-08-31T09:48:06;5.00;4.00;3.00
69746;PMS7003;57018;50.278;19.134;2023-08-31T09:50:35;4.00;4.00;3.00
69746;PMS7003;57018;50.278;19.134;2023-08-31T09:53:04;6.00;6.00;4.00
69746;PMS7003;57018;50.278;19.134;2023-08-31T09:58:02;6.00;6.00;4.00
69746;PMS7003;57018;50.278;19.134;2023-08-31T10:00:32;7.00;5.00;4.00
69746;PMS7003;57018;50.278;19.134;2023-08-31T10:03:04;4.00;3.00;3.00
69746;PMS7003;57018;50.278;19.134;2023-08-31T10:07:59;7.00;5.00;3.00
69746;PMS7003;57018;50.278;19.134;2023-08-31T10:10:28;9.50;9.50;8.00
69746;PMS7003;57018;50.278;19.134;2023-08-31T10:12:56;5.00;5.00;3.50
69746;PMS7003;57018;50.278;19.134;2023-08-31T10:15:26;6.00;6.00;4.00
69746;PMS7003;57018;50.278;19.134;2023-08-31T10:17:59;4.00;4.00;3.00
69746;PMS7003;57018;50.278;19.134;2023-08-31T10:20:29;6.00;6.00;5.00
69746;PMS7003;57018;50.278;19.134;2023-08-31T10:25:25;6.33;6.33;4.67
69746;PMS7003;57018;50.278;19.134;2023-08-31T10:28:30;6.00;6.00;4.00
69746;PMS7003;57018;50.278;19.134;2023-08-31T10:31:08;6.00;6.00;4.00
69746;PMS7003;57018;50.278;19.134;2023-08-31T10:33:40;6.00;6.00;5.00
69746;PMS7003;57018;50.278;19.134;2023-08-31T10:36:12;8.00;4.50;4.00
69746;PMS7003;57018;50.278;19.134;2023-08-31T10:38:42;5.50;5.50;4.50
69746;PMS7003;57018;50.278;19.134;2023-08-31T10:41:22;9.00;9.00;5.50
69746;PMS7003;57018;50.278;19.134;2023-08-31T10:43:52;7.00;7.00;5.00
69746;PMS7003;57018;50.278;19.134;2023-08-31T10:46:30;7.00;7.00;4.00
69746;PMS7003;57018;50.278;19.134;2023-08-31T10:49:00;8.00;7.00;5.00
69746;PMS7003;57018;50.278;19.134;2023-08-31T10:54:07;5.00;5.00;3.00
69746;PMS7003;57018;50.278;19.134;2023-08-31T11:07:24;8.00;6.00;5.00
69746;PMS7003;57018;50.278;19.134;2023-08-31T11:10:05;6.50;6.50;5.00
69746;PMS7003;57018;50.278;19.134;2023-08-31T11:12:37;8.00;8.00;5.00
69746;PMS7003;57018;50.278;19.134;2023-08-31T11:15:06;7.50;7.50;4.50
69746;PMS7003;57018;50.278;19.134;2023-08-31T11:17:36;8.00;7.50;5.50
69746;PMS7003;57018;50.278;19.134;2023-08-31T11:20:07;7.50;7.50;5.50
69746;PMS7003;57018;50.278;19.134;2023-08-31T11:22:39;6.00;6.00;4.00
69746;PMS7003;57018;50.278;19.134;2023-08-31T11:25:09;11.00;11.00;8.00
69746;PMS7003;57018;50.278;19.134;2023-08-31T11:27:39;9.00;9.00;6.00
69746;PMS7003;57018;50.278;19.134;2023-08-31T11:30:12;10.00;10.00;8.00
69746;PMS7003;57018;50.278;19.134;2023-08-31T11:32:44;6.50;6.50;5.50
69746;PMS7003;57018;50.278;19.134;2023-08-31T11:35:16;9.00;8.00;6.00
69746;PMS7003;57018;50.278;19.134;2023-08-31T11:37:45;10.00;8.00;6.00
69746;PMS7003;57018;50.278;19.134;2023-08-31T11:40:16;7.00;7.00;4.50
69746;PMS7003;57018;50.278;19.134;2023-08-31T11:42:44;9.00;8.00;6.00
69746;PMS7003;57018;50.278;19.134;2023-08-31T11:45:12;6.00;6.00;5.00
69746;PMS7003;57018;50.278;19.134;2023-08-31T11:50:08;6.00;5.00;4.00
69746;PMS7003;57018;50.278;19.134;2023-08-31T11:52:37;9.00;8.00;7.00
69746;PMS7003;57018;50.278;19.134;2023-08-31T11:55:10;7.00;7.00;5.00
69746;PMS7003;57018;50.278;19.134;2023-08-31T11:57:39;7.50;7.50;5.50
69746;PMS7003;57018;50.278;19.134;2023-08-31T12:02:37;8.00;8.00;7.00
69746;PMS7003;57018;50.278;19.134;2023-08-31T12:05:05;8.00;8.00;7.00
69746;PMS7003;57018;50.278;19.134;2023-08-31T12:07:39;6.00;6.00;5.00
69746;PMS7003;57018;50.278;19.134;2023-08-31T12:10:08;11.00;8.00;6.50
69746;PMS7003;57018;50.278;19.134;2023-08-31T12:12:37;9.00;9.00;7.00
69746;PMS7003;57018;50.278;19.134;2023-08-31T12:15:06;6.00;6.00;4.00
69746;PMS7003;57018;50.278;19.134;2023-08-31T12:17:37;7.00;7.00;5.00
69746;PMS7003;57018;50.278;19.134;2023-08-31T12:20:06;8.00;8.00;6.00
69746;PMS7003;57018;50.278;19.134;2023-08-31T12:22:36;9.00;7.00;5.00
69746;PMS7003;57018;50.278;19.134;2023-08-31T12:25:04;7.00;7.00;5.00
69746;PMS7003;57018;50.278;19.134;2023-08-31T12:27:33;6.00;6.00;5.00
69746;PMS7003;57018;50.278;19.134;2023-08-31T12:30:00;7.00;5.00;3.00
69746;PMS7003;57018;50.278;19.134;2023-08-31T12:32:29;9.00;8.00;6.00
69746;PMS7003;57018;50.278;19.134;2023-08-31T12:34:57;9.50;9.50;8.00
69746;PMS7003;57018;50.278;19.134;2023-08-31T12:37:25;10.00;9.00;7.00
69746;PMS7003;57018;50.278;19.134;2023-08-31T12:39:52;11.00;11.00;7.00
69746;PMS7003;57018;50.278;19.134;2023-08-31T12:44:47;13.00;10.00;8.00
69746;PMS7003;57018;50.278;19.134;2023-08-31T12:47:15;14.00;14.00;9.00
69746;PMS7003;57018;50.278;19.134;2023-08-31T12:49:43;13.00;11.00;9.00
69746;PMS7003;57018;50.278;19.134;2023-08-31T12:52:10;8.00;8.00;6.00
69746;PMS7003;57018;50.278;19.134;2023-08-31T12:54:40;8.00;7.00;5.00
69746;PMS7003;57018;50.278;19.134;2023-08-31T12:57:08;8.00;6.50;4.50
69746;PMS7003;57018;50.278;19.134;2023-08-31T12:59:36;9.00;5.50;5.00
69746;PMS7003;57018;50.278;19.134;2023-08-31T13:02:03;5.00;5.00;4.00
69746;PMS7003;57018;50.278;19.134;2023-08-31T13:04:36;7.00;7.00;6.00
69746;PMS7003;57018;50.278;19.134;2023-08-31T13:07:04;7.00;7.00;6.00
69746;PMS7003;57018;50.278;19.134;2023-08-31T13:09:32;7.50;7.50;4.00
69746;PMS7003;57018;50.278;19.134;2023-08-31T13:12:00;7.00;7.00;6.00
69746;PMS7003;57018;50.278;19.134;2023-08-31T13:14:28;10.50;9.00;6.50
69746;PMS7003;57018;50.278;19.134;2023-08-31T13:16:56;8.00;8.00;5.00
69746;PMS7003;57018;50.278;19.134;2023-08-31T13:19:24;9.50;8.50;6.00
69746;PMS7003;57018;50.278;19.134;2023-08-31T13:21:52;6.67;6.67;4.00
69746;PMS7003;57018;50.278;19.134;2023-08-31T13:24:20;7.00;6.50;5.00
69746;PMS7003;57018;50.278;19.134;2023-08-31T13:26:48;6.00;6.00;4.00
69746;PMS7003;57018;50.278;19.134;2023-08-31T13:29:15;5.50;5.50;4.00
69746;PMS7003;57018;50.278;19.134;2023-08-31T13:31:43;5.00;5.00;4.00
69746;PMS7003;57018;50.278;19.134;2023-08-31T13:34:11;6.00;6.00;5.00
69746;PMS7003;57018;50.278;19.134;2023-08-31T13:36:39;5.00;5.00;3.00
69746;PMS7003;57018;50.278;19.134;2023-08-31T13:39:07;5.00;5.00;4.00
69746;PMS7003;57018;50.278;19.134;2023-08-31T13:41:35;4.00;4.00;4.00
69746;PMS7003;57018;50.278;19.134;2023-08-31T13:44:04;6.00;6.00;4.00
69746;PMS7003;57018;50.278;19.134;2023-08-31T13:46:32;3.00;3.00;2.00
69746;PMS7003;57018;50.278;19.134;2023-08-31T13:48:59;4.00;4.00;3.00
69746;PMS7003;57018;50.278;19.134;2023-08-31T13:51:28;3.50;3.50;3.50
69746;PMS7003;57018;50.278;19.134;2023-08-31T13:53:56;4.00;4.00;2.50
69746;PMS7003;57018;50.278;19.134;2023-08-31T13:56:24;4.00;4.00;3.00
69746;PMS7003;57018;50.278;19.134;2023-08-31T14:01:19;5.00;5.00;3.00
69746;PMS7003;57018;50.278;19.134;2023-08-31T14:03:47;5.00;4.00;3.00
69746;PMS7003;57018;50.278;19.134;2023-08-31T14:06:14;4.00;4.00;3.00
69746;PMS7003;57018;50.278;19.134;2023-08-31T14:08:42;4.00;4.00;3.00
69746;PMS7003;57018;50.278;19.134;2023-08-31T14:11:10;4.00;4.00;3.00
69746;PMS7003;57018;50.278;19.134;2023-08-31T14:13:38;4.00;4.00;2.00
69746;PMS7003;57018;50.278;19.134;2023-08-31T14:16:06;5.00;5.00;3.33
69746;PMS7003;57018;50.278;19.134;2023-08-31T14:18:34;4.00;4.00;3.00
69746;PMS7003;57018;50.278;19.134;2023-08-31T14:21:02;3.50;3.50;2.50
69746;PMS7003;57018;50.278;19.134;2023-08-31T14:23:30;4.00;3.50;2.00
69746;PMS7003;57018;50.278;19.134;2023-08-31T14:26:01;5.00;5.00;4.00
69746;PMS7003;57018;50.278;19.134;2023-08-31T14:28:30;4.00;4.00;3.50
69746;PMS7003;57018;50.278;19.134;2023-08-31T14:30:58;5.00;4.00;3.00
69746;PMS7003;57018;50.278;19.134;2023-08-31T14:33:31;4.00;4.00;3.00
69746;PMS7003;57018;50.278;19.134;2023-08-31T14:35:59;4.50;4.50;3.50
69746;PMS7003;57018;50.278;19.134;2023-08-31T14:38:27;4.00;4.00;3.00
69746;PMS7003;57018;50.278;19.134;2023-08-31T14:40:55;5.00;4.00;4.00
69746;PMS7003;57018;50.278;19.134;2023-08-31T14:43:23;3.50;3.50;3.00
69746;PMS7003;57018;50.278;19.134;2023-08-31T14:45:50;4.33;4.33;3.00
69746;PMS7003;57018;50.278;19.134;2023-08-31T14:50:45;3.00;3.00;2.00
69746;PMS7003;57018;50.278;19.134;2023-08-31T14:53:13;3.00;3.00;2.67
69746;PMS7003;57018;50.278;19.134;2023-08-31T14:55:41;4.00;4.00;2.50
69746;PMS7003;57018;50.278;19.134;2023-08-31T14:58:15;7.00;6.00;4.00
69746;PMS7003;57018;50.278;19.134;2023-08-31T15:00:43;3.00;3.00;2.00
69746;PMS7003;57018;50.278;19.134;2023-08-31T15:03:11;3.00;3.00;3.00
69746;PMS7003;57018;50.278;19.134;2023-08-31T15:05:39;2.67;2.33;2.33
69746;PMS7003;57018;50.278;19.134;2023-08-31T15:08:07;3.00;3.00;2.00
69746;PMS7003;57018;50.278;19.134;2023-08-31T15:10:37;3.50;3.50;2.50
69746;PMS7003;57018;50.278;19.134;2023-08-31T15:13:06;2.00;1.00;0.00
69746;PMS7003;57018;50.278;19.134;2023-08-31T15:18:00;5.00;4.00;3.00
69746;PMS7003;57018;50.278;19.134;2023-08-31T15:22:55;5.00;3.00;2.00
69746;PMS7003;57018;50.278;19.134;2023-08-31T15:27:50;4.00;2.50;2.00
69746;PMS7003;57018;50.278;19.134;2023-08-31T15:30:18;4.00;4.00;4.00
69746;PMS7003;57018;50.278;19.134;2023-08-31T15:32:46;4.00;4.00;3.00